Time;durP1;ratioP1;P1;durP2;ratioP2;P2;SDS_P1;SDS_P2;PMS_P1;PMS_P2;Temp;Humidity;BMP_temperature;BMP_pressure;BME280_temperature;BME280_humidity;BME280_pressure;Samples;Min_cycle;Max_cycle;Signal;HPM_P1;HPM_P2
2023/12/25 00:00:04;;;;;;;24.50;21.97;;;10.30;84.20;;;;;;5023258;28;20198;-91
2023/12/25 00:02:38;;;;;;;24.03;21.57;;;10.40;83.90;;;;;;5024072;28;20175;-92
2023/12/25 00:05:08;;;;;;;;;;;10.40;83.90;;;;;;5028544;28;20157;-92
2023/12/25 00:07:34;;;;;;;;;;;10.30;84.20;;;;;;5023588;28;20440;-91
2023/12/25 00:10:02;;;;;;;;;;;10.50;83.00;;;;;;5020240;28;19955;-92
2023/12/25 00:12:27;;;;;;;;;;;10.40;83.70;;;;;;5020685;28;19920;-91
2023/12/25 00:14:53;;;;;;;;;;;10.40;83.70;;;;;;5019178;28;20290;-92
2023/12/25 00:17:18;;;;;;;;;;;10.30;84.10;;;;;;5019974;28;19963;-91
2023/12/25 00:19:44;;;;;;;;;;;10.40;83.40;;;;;;5020175;28;19905;-91
2023/12/25 00:22:10;;;;;;;;;;;10.40;83.30;;;;;;5017913;28;19940;-91
2023/12/25 00:24:35;;;;;;;;;;;10.40;83.20;;;;;;5018867;28;19912;-91
2023/12/25 00:27:01;;;;;;;;;;;10.30;83.70;;;;;;5016011;28;20063;-91
2023/12/25 00:29:26;;;;;;;;;;;10.30;83.50;;;;;;5023734;28;19996;-91
2023/12/25 00:31:55;;;;;;;;;;;10.40;83.10;;;;;;5022131;28;20292;-91
2023/12/25 00:34:24;;;;;;;;;;;10.30;83.40;;;;;;5022973;28;19932;-92
2023/12/25 00:36:52;;;;;;;;;;;10.40;83.10;;;;;;5027852;28;20270;-91
2023/12/25 00:39:20;;;;;;;;;;;10.30;83.60;;;;;;5021757;28;19913;-93
2023/12/25 00:41:46;;;;;;;;;;;10.40;83.20;;;;;;5021999;28;19906;-90
2023/12/25 00:44:27;;;;;;;;;;;10.50;82.90;;;;;;5020779;28;19912;-93
2023/12/25 00:46:55;;;;;;;23.40;21.47;;;10.50;82.50;;;;;;5025605;28;19905;-92
2023/12/25 00:49:22;;;;;;;11.60;10.50;;;10.30;83.20;;;;;;5022544;28;20193;-91
2023/12/25 00:51:49;;;;;;;15.40;11.27;;;10.30;83.20;;;;;;5026730;28;20205;-92
2023/12/25 00:54:19;;;;;;;15.37;11.33;;;10.40;83.10;;;;;;5005723;28;20236;-91
2023/12/25 00:56:45;;;;;;;11.20;10.17;;;10.30;83.70;;;;;;5025723;28;20175;-91
2023/12/25 00:59:13;;;;;;;;;;;10.30;84.00;;;;;;5024977;28;20220;-91
2023/12/25 01:01:39;;;;;;;;;;;10.30;84.10;;;;;;5021212;28;19905;-92
2023/12/25 01:04:04;;;;;;;;;;;10.40;83.60;;;;;;5022374;28;19906;-91
2023/12/25 01:06:33;;;;;;;;;;;10.50;82.80;;;;;;5018573;28;19905;-92
2023/12/25 01:09:05;;;;;;;;;;;10.50;83.20;;;;;;5017090;28;20020;-91
2023/12/25 01:11:33;;;;;;;;;;;10.40;83.60;;;;;;5017288;28;19919;-92
2023/12/25 01:13:58;;;;;;;;;;;10.40;83.70;;;;;;5018948;28;19909;-91
2023/12/25 01:16:24;;;;;;;;;;;10.40;83.80;;;;;;5019603;28;19916;-90
2023/12/25 01:18:50;;;;;;;;;;;10.40;83.30;;;;;;5019626;28;19911;-91
2023/12/25 01:21:17;;;;;;;14.20;10.70;;;10.50;83.30;;;;;;5018262;28;20006;-92
2023/12/25 01:23:44;;;;;;;11.60;10.40;;;10.50;83.30;;;;;;5018784;28;20190;-91
2023/12/25 01:26:09;;;;;;;17.87;10.37;;;10.50;83.20;;;;;;5018450;28;20177;-91
2023/12/25 01:28:35;;;;;;;16.47;11.60;;;10.50;83.40;;;;;;5019809;28;20173;-92
2023/12/25 01:31:00;;;;;;;15.23;10.90;;;10.60;82.60;;;;;;5014734;28;20245;-92
2023/12/25 01:33:26;;;;;;;15.27;11.27;;;10.50;83.10;;;;;;5014309;28;25078;-90
2023/12/25 01:35:51;;;;;;;13.13;11.60;;;10.50;83.10;;;;;;5015008;28;20236;-91
2023/12/25 01:38:17;;;;;;;18.00;11.60;;;10.50;83.10;;;;;;5014269;28;20216;-91
2023/12/25 01:40:46;;;;;;;13.60;10.97;;;10.50;83.20;;;;;;5014448;28;20190;-92
2023/12/25 01:43:11;;;;;;;16.33;11.33;;;10.50;83.00;;;;;;5015302;28;20217;-91
2023/12/25 01:45:37;;;;;;;18.53;11.90;;;10.50;83.40;;;;;;5018660;28;20181;-92
2023/12/25 01:48:03;;;;;;;13.07;11.77;;;10.70;82.90;;;;;;5016810;28;20185;-90
2023/12/25 01:50:30;;;;;;;25.60;23.40;;;10.80;82.20;;;;;;5018837;28;20201;-90
2023/12/25 01:52:55;;;;;;;;;;;10.70;83.10;;;;;;5023879;28;20268;-92
2023/12/25 01:55:21;;;;;;;;;;;10.70;83.20;;;;;;5022785;28;19948;-90
2023/12/25 01:57:46;;;;;;;;;;;10.70;83.30;;;;;;5021459;28;20388;-90
2023/12/25 02:00:15;;;;;;;;;;;10.70;83.00;;;;;;5025471;28;19905;-92
2023/12/25 02:02:40;;;;;;;;;;;10.60;83.40;;;;;;5018959;28;19955;-91
2023/12/25 02:05:07;;;;;;;;;;;10.60;83.50;;;;;;5019698;28;19965;-91
2023/12/25 02:07:32;;;;;;;;;;;10.60;83.70;;;;;;5024416;28;19905;-91
2023/12/25 02:09:58;;;;;;;;;;;10.60;83.80;;;;;;5020088;28;20274;-91
2023/12/25 02:12:23;;;;;;;;;;;10.70;83.30;;;;;;5018225;28;19924;-91
2023/12/25 02:14:49;;;;;;;;;;;10.70;83.40;;;;;;5020579;28;19915;-91
2023/12/25 02:17:15;;;;;;;;;;;10.60;83.60;;;;;;5021665;28;19910;-91
2023/12/25 02:19:43;;;;;;;;;;;10.60;83.60;;;;;;5021960;28;19912;-90
2023/12/25 02:22:09;;;;;;;;;;;10.70;83.40;;;;;;5023639;28;19912;-93
2023/12/25 02:24:41;;;;;;;;;;;10.60;83.30;;;;;;5021999;28;19905;-91
2023/12/25 02:27:06;;;;;;;;;;;10.60;83.30;;;;;;5022395;28;19909;-91
2023/12/25 02:29:33;;;;;;;;;;;10.50;83.70;;;;;;5022710;28;19906;-91
2023/12/25 02:31:59;;;;;;;;;;;10.60;82.90;;;;;;5022776;28;19906;-92
2023/12/25 02:34:24;;;;;;;;;;;10.70;82.00;;;;;;5026640;28;19951;-88
2023/12/25 02:36:49;;;;;;;;;;;10.50;82.70;;;;;;5019966;28;19905;-91
2023/12/25 02:39:17;;;;;;;;;;;10.50;82.50;;;;;;5020272;28;19905;-91
2023/12/25 02:41:42;;;;;;;;;;;10.50;82.50;;;;;;5020092;28;19912;-92
2023/12/25 02:44:08;;;;;;;;;;;10.40;82.70;;;;;;5022153;28;19905;-91
2023/12/25 02:46:34;;;;;;;;;;;10.50;82.30;;;;;;5018544;28;19955;-90
2023/12/25 02:48:59;;;;;;;;;;;10.40;82.70;;;;;;5020941;28;19913;-92
2023/12/25 02:51:25;;;;;;;;;;;10.40;83.00;;;;;;5025372;28;19905;-92
2023/12/25 02:53:50;;;;;;;;;;;10.30;83.30;;;;;;5024449;28;19996;-89
2023/12/25 02:56:15;;;;;;;;;;;10.40;82.90;;;;;;5022607;28;19954;-88
2023/12/25 02:58:41;;;;;;;;;;;10.30;83.40;;;;;;5028181;28;19906;-92
2023/12/25 03:01:06;;;;;;;;;;;10.30;83.70;;;;;;5023933;28;19905;-91
2023/12/25 03:03:32;;;;;;;;;;;10.30;84.00;;;;;;5023519;28;19906;-91
2023/12/25 03:05:57;;;;;;;;;;;10.30;84.00;;;;;;5024720;28;19978;-90
2023/12/25 03:08:23;;;;;;;;;;;10.30;84.40;;;;;;5024618;28;19980;-91
2023/12/25 03:10:48;;;;;;;;;;;10.30;84.40;;;;;;5025422;28;19905;-91
2023/12/25 03:13:13;;;;;;;;;;;10.20;84.70;;;;;;5024124;28;20006;-90
2023/12/25 03:15:39;;;;;;;;;;;10.20;84.10;;;;;;5024333;28;19909;-91
2023/12/25 03:18:04;;;;;;;;;;;10.30;83.60;;;;;;5021046;28;19992;-90
2023/12/25 03:20:30;;;;;;;;;;;10.20;83.70;;;;;;5021614;28;19906;-88
2023/12/25 03:22:55;;;;;;;;;;;10.20;83.80;;;;;;5021692;28;19980;-91
2023/12/25 03:25:21;;;;;;;18.97;12.13;;;10.20;83.80;;;;;;5023945;28;20062;-90
2023/12/25 03:27:46;;;;;;;20.00;12.37;;;10.10;84.20;;;;;;5023595;28;25061;-91
2023/12/25 03:30:12;;;;;;;15.17;11.17;;;10.00;84.50;;;;;;5023537;28;20194;-91
2023/12/25 03:32:38;;;;;;;22.50;11.63;;;10.10;84.20;;;;;;5021910;28;20181;-93
2023/12/25 03:35:04;;;;;;;18.90;12.07;;;10.00;84.40;;;;;;5022956;28;20205;-90
2023/12/25 03:37:30;;;;;;;18.47;11.93;;;10.10;84.10;;;;;;5020382;28;20241;-92
2023/12/25 03:39:57;;;;;;;18.83;11.73;;;10.10;84.20;;;;;;5026374;28;20216;-92
2023/12/25 03:42:23;;;;;;;17.57;11.50;;;10.00;84.40;;;;;;5021945;28;20174;-89
2023/12/25 03:44:49;;;;;;;17.93;11.30;;;10.10;84.10;;;;;;5023071;28;20264;-92
2023/12/25 03:47:14;;;;;;;25.07;22.03;;;10.00;84.20;;;;;;5024957;28;20209;-91
2023/12/25 03:49:40;;;;;;;31.00;23.40;;;10.00;84.10;;;;;;5023506;28;25074;-89
2023/12/25 03:52:05;;;;;;;26.83;21.90;;;9.90;84.30;;;;;;5022218;28;20189;-91
2023/12/25 03:54:31;;;;;;;23.87;21.50;;;9.90;84.30;;;;;;5023621;28;20787;-92
2023/12/25 03:56:57;;;;;;;28.57;22.43;;;9.90;84.00;;;;;;5023529;28;20200;-92
2023/12/25 03:59:22;;;;;;;25.83;22.30;;;9.90;84.20;;;;;;5022228;28;20228;-91
2023/12/25 04:01:48;;;;;;;28.07;20.97;;;9.90;84.20;;;;;;5021860;28;20276;-90
2023/12/25 04:04:14;;;;;;;23.53;21.17;;;9.90;83.50;;;;;;5023516;28;20185;-91
2023/12/25 04:06:39;;;;;;;26.27;21.80;;;9.90;83.70;;;;;;5024250;28;20281;-91
2023/12/25 04:09:05;;;;;;;29.40;22.07;;;9.90;83.80;;;;;;5025940;28;20198;-91
2023/12/25 04:11:31;;;;;;;26.13;21.40;;;9.80;84.50;;;;;;5023599;28;20207;-92
2023/12/25 04:13:57;;;;;;;31.30;21.53;;;9.80;84.60;;;;;;5025643;28;20201;-90
2023/12/25 04:16:24;;;;;;;31.27;22.80;;;9.70;84.90;;;;;;5023457;28;20196;-90
2023/12/25 04:18:52;;;;;;;28.93;23.17;;;9.80;84.40;;;;;;5022849;28;20250;-92
2023/12/25 04:21:31;;;;;;;41.23;24.57;;;9.80;83.70;;;;;;5022798;28;20174;-92
2023/12/25 04:23:58;;;;;;;33.47;14.23;;;9.80;83.90;;;;;;5022767;28;20667;-89
2023/12/25 04:26:24;;;;;;;27.20;13.60;;;9.70;84.30;;;;;;5021249;28;20177;-91
2023/12/25 04:28:50;;;;;;;34.90;24.43;;;9.70;84.30;;;;;;5021858;28;20178;-91
2023/12/25 04:31:17;;;;;;;29.70;23.47;;;9.70;84.60;;;;;;5020500;28;20228;-91
2023/12/25 04:33:43;;;;;;;27.20;22.87;;;9.80;84.20;;;;;;5021797;28;20178;-91
2023/12/25 04:36:09;;;;;;;20.63;11.67;;;9.70;84.40;;;;;;5023277;28;20215;-90
2023/12/25 04:38:37;;;;;;;25.43;13.43;;;9.70;84.50;;;;;;5020455;28;20198;-91
2023/12/25 04:41:02;;;;;;;35.57;22.10;;;9.70;84.20;;;;;;5022290;28;20267;-91
2023/12/25 04:43:28;;;;;;;27.77;21.53;;;9.70;84.40;;;;;;5019360;28;20272;-90
2023/12/25 04:45:53;;;;;;;37.93;24.33;;;9.60;84.30;;;;;;5021160;28;20256;-89
2023/12/25 04:48:19;;;;;;;30.97;13.50;;;9.60;83.70;;;;;;5020148;28;20174;-91
2023/12/25 04:50:44;;;;;;;27.40;13.57;;;9.70;83.50;;;;;;5022418;28;20280;-90
2023/12/25 04:53:10;;;;;;;28.47;12.97;;;9.60;83.30;;;;;;5023201;28;20276;-90
2023/12/25 04:55:37;;;;;;;30.33;13.43;;;9.50;83.90;;;;;;5024301;28;20240;-91
2023/12/25 04:58:03;;;;;;;27.73;13.43;;;9.50;84.10;;;;;;5024228;28;20177;-88
2023/12/25 05:00:28;;;;;;;25.57;13.80;;;9.50;84.20;;;;;;5021042;28;20204;-89
2023/12/25 05:02:54;;;;;;;24.10;12.03;;;9.60;83.90;;;;;;5017307;28;20278;-91
2023/12/25 05:05:20;;;;;;;24.67;11.00;;;9.30;84.50;;;;;;5022243;28;20208;-92
2023/12/25 05:07:45;;;;;;;24.10;10.20;;;9.20;86.30;;;;;;5027310;28;20185;-91
2023/12/25 05:10:11;;;;;;;28.30;10.90;;;9.10;87.50;;;;;;5025126;28;20201;-91
2023/12/25 05:12:37;;;;;;;27.10;10.03;;;9.00;87.90;;;;;;5024439;28;20224;-91
2023/12/25 05:15:03;;;;;;;21.13;10.37;;;9.00;88.00;;;;;;5023638;28;20205;-92
2023/12/25 05:17:28;;;;;;;27.93;10.90;;;9.00;87.20;;;;;;5022909;28;20188;-92
2023/12/25 05:19:54;;;;;;;25.43;12.17;;;9.00;86.70;;;;;;5024418;28;20257;-91
2023/12/25 05:22:20;;;;;;;24.70;10.97;;;9.00;86.00;;;;;;5024221;28;20272;-91
2023/12/25 05:24:45;;;;;;;23.70;12.93;;;9.10;85.60;;;;;;5022864;28;20605;-93
2023/12/25 05:27:11;;;;;;;27.13;12.63;;;9.10;85.60;;;;;;5026187;28;20180;-92
2023/12/25 05:29:37;;;;;;;28.77;12.87;;;9.10;85.80;;;;;;5021224;28;20197;-92
2023/12/25 05:32:03;;;;;;;33.77;12.07;;;9.10;85.50;;;;;;5021351;28;20187;-92
2023/12/25 05:34:28;;;;;;;38.63;14.33;;;9.10;85.40;;;;;;5022286;28;20268;-89
2023/12/25 05:36:54;;;;;;;27.20;12.60;;;9.20;84.90;;;;;;5022465;28;20178;-92
2023/12/25 05:39:19;;;;;;;35.97;12.77;;;9.20;85.00;;;;;;5022628;28;20197;-90
2023/12/25 05:41:45;;;;;;;33.53;16.73;;;9.20;85.00;;;;;;5022541;28;20279;-91
2023/12/25 05:44:11;;;;;;;34.30;22.00;;;9.20;85.10;;;;;;5021771;28;20177;-92
2023/12/25 05:46:37;;;;;;;36.37;22.27;;;9.20;85.30;;;;;;5022889;28;20212;-91
2023/12/25 05:49:03;;;;;;;35.27;21.97;;;9.30;84.80;;;;;;5024822;28;20201;-91
2023/12/25 05:51:29;;;;;;;35.57;22.30;;;9.20;85.30;;;;;;5022831;28;20216;-92
2023/12/25 05:53:55;;;;;;;37.03;22.07;;;9.20;85.50;;;;;;5026495;28;20180;-92
2023/12/25 05:56:21;;;;;;;42.63;23.00;;;9.20;85.50;;;;;;5021566;28;20200;-90
2023/12/25 05:58:46;;;;;;;37.13;21.83;;;9.10;85.70;;;;;;5019762;28;20235;-92
2023/12/25 06:01:13;;;;;;;37.73;22.17;;;9.20;85.60;;;;;;5022668;28;20241;-91
2023/12/25 06:03:41;;;;;;;34.70;21.60;;;9.10;86.00;;;;;;5023618;28;20716;-91
2023/12/25 06:06:07;;;;;;;32.77;23.80;;;9.10;85.80;;;;;;5019977;28;20192;-92
2023/12/25 06:08:33;;;;;;;45.03;22.77;;;9.10;85.10;;;;;;5020819;28;20645;-91
2023/12/25 06:10:59;;;;;;;28.13;21.47;;;9.00;85.40;;;;;;5018891;28;20197;-90
2023/12/25 06:13:24;;;;;;;38.00;22.80;;;9.10;85.10;;;;;;5023172;28;20177;-91
2023/12/25 06:15:50;;;;;;;23.43;20.47;;;9.10;84.70;;;;;;5023036;28;20201;-91
2023/12/25 06:18:15;;;;;;;35.23;22.20;;;9.00;85.10;;;;;;5023514;28;20173;-91
2023/12/25 06:20:41;;;;;;;32.37;12.57;;;9.10;84.60;;;;;;5022576;28;20205;-92
2023/12/25 06:23:07;;;;;;;35.27;12.80;;;9.00;85.00;;;;;;5023740;28;20170;-90
2023/12/25 06:25:32;;;;;;;35.63;22.17;;;8.90;85.40;;;;;;5021535;28;20641;-91
2023/12/25 06:27:58;;;;;;;44.23;23.53;;;8.90;85.50;;;;;;5026192;28;20193;-91
2023/12/25 06:30:23;;;;;;;33.83;21.53;;;8.90;85.50;;;;;;5028011;28;20216;-92
2023/12/25 06:32:49;;;;;;;28.73;12.93;;;8.90;85.70;;;;;;5023857;28;20688;-92
2023/12/25 06:35:15;;;;;;;42.83;13.33;;;8.90;85.40;;;;;;5024233;28;20226;-91
2023/12/25 06:37:40;;;;;;;44.10;22.40;;;8.90;85.60;;;;;;5021860;28;20177;-91
2023/12/25 06:40:06;;;;;;;39.83;21.90;;;8.80;85.70;;;;;;5021766;28;20267;-91
2023/12/25 06:42:32;;;;;;;45.30;21.80;;;8.80;85.70;;;;;;5023363;28;20224;-92
2023/12/25 06:44:57;;;;;;;33.77;13.20;;;8.70;86.10;;;;;;5023326;28;20185;-91
2023/12/25 06:47:23;;;;;;;15.53;10.33;;;8.70;85.90;;;;;;5023983;28;20212;-92
2023/12/25 06:49:49;;;;;;;37.50;19.57;;;8.70;85.80;;;;;;5025912;28;20252;-91
2023/12/25 06:52:14;;;;;;;38.67;20.07;;;8.70;85.90;;;;;;5022547;28;20182;-93
2023/12/25 06:54:40;;;;;;;43.43;13.30;;;8.60;85.80;;;;;;5025225;28;20209;-92
2023/12/25 06:57:05;;;;;;;45.43;14.60;;;8.60;85.80;;;;;;5024398;28;20181;-92
2023/12/25 06:59:31;;;;;;;30.50;13.33;;;8.70;85.00;;;;;;5024146;28;20276;-92
2023/12/25 07:01:56;;;;;;;31.50;15.00;;;8.60;85.10;;;;;;5021848;28;20182;-91
2023/12/25 07:04:22;;;;;;;34.70;13.80;;;8.60;85.10;;;;;;5022964;28;20241;-91
2023/12/25 07:06:49;;;;;;;32.60;15.60;;;8.60;84.50;;;;;;5023715;28;20182;-92
2023/12/25 07:09:15;;;;;;;28.13;14.07;;;8.60;83.90;;;;;;5022704;28;20228;-92
2023/12/25 07:11:41;;;;;;;31.53;15.03;;;8.60;83.70;;;;;;5020726;28;20200;-92
2023/12/25 07:14:10;;;;;;;25.23;16.03;;;8.50;83.20;;;;;;5022258;28;20166;-91
2023/12/25 07:16:36;;;;;;;31.30;16.83;;;8.60;81.90;;;;;;5024421;28;20178;-91
2023/12/25 07:19:01;;;;;;;35.70;15.37;;;8.60;81.90;;;;;;5022110;28;20578;-92
2023/12/25 07:21:27;;;;;;;23.23;15.63;;;8.50;81.90;;;;;;5023600;28;20176;-91
2023/12/25 07:23:52;;;;;;;35.07;16.50;;;8.40;82.00;;;;;;5023371;28;20235;-92
2023/12/25 07:26:18;;;;;;;30.13;16.33;;;8.30;82.30;;;;;;5022426;28;20185;-93
2023/12/25 07:28:44;;;;;;;30.53;16.03;;;8.30;82.60;;;;;;5020633;28;20232;-91
2023/12/25 07:31:10;;;;;;;33.77;16.67;;;8.30;82.50;;;;;;5022049;28;20169;-91
2023/12/25 07:33:36;;;;;;;32.80;16.47;;;8.30;82.50;;;;;;5023545;28;20232;-91
2023/12/25 07:36:03;;;;;;;41.33;17.40;;;8.30;82.10;;;;;;5023797;28;20586;-92
2023/12/25 07:38:29;;;;;;;35.47;17.33;;;8.20;82.30;;;;;;5024195;28;20598;-92
2023/12/25 07:40:55;;;;;;;31.70;16.87;;;8.20;82.10;;;;;;5024039;28;20267;-92
2023/12/25 07:43:22;;;;;;;41.13;18.83;;;8.20;82.20;;;;;;5026192;28;20173;-91
2023/12/25 07:45:47;;;;;;;24.70;15.33;;;8.20;81.60;;;;;;5024588;28;20700;-93
2023/12/25 07:48:13;;;;;;;25.93;23.57;;;8.20;82.20;;;;;;5023705;28;20216;-93
2023/12/25 07:50:38;;;;;;;34.37;22.97;;;8.20;82.10;;;;;;5024069;28;20208;-91
2023/12/25 07:53:04;;;;;;;38.60;24.20;;;8.20;82.40;;;;;;5021890;28;20715;-91
2023/12/25 07:55:30;;;;;;;31.53;23.07;;;8.10;82.90;;;;;;5025815;28;20197;-91
2023/12/25 07:57:56;;;;;;;35.00;21.60;;;8.10;83.10;;;;;;5027763;28;20193;-91
2023/12/25 08:00:22;;;;;;;41.43;20.63;;;8.00;83.50;;;;;;5023574;28;20224;-92
2023/12/25 08:02:47;;;;;;;47.80;21.60;;;8.00;84.10;;;;;;5026233;28;20177;-92
2023/12/25 08:05:13;;;;;;;44.90;20.20;;;7.90;84.50;;;;;;5021983;28;20272;-91
2023/12/25 08:07:39;;;;;;;30.20;18.47;;;7.90;85.00;;;;;;5021207;28;20188;-90
2023/12/25 08:10:05;;;;;;;44.80;22.30;;;8.00;85.40;;;;;;5023564;28;20201;-92
2023/12/25 08:12:30;;;;;;;45.10;19.67;;;7.90;85.50;;;;;;5021083;28;20257;-91
2023/12/25 08:14:56;;;;;;;41.90;20.27;;;8.00;85.30;;;;;;5020217;28;20209;-92
2023/12/25 08:17:21;;;;;;;47.40;18.07;;;7.90;85.40;;;;;;5023100;28;20182;-91
2023/12/25 08:19:47;;;;;;;46.97;20.83;;;7.90;85.50;;;;;;5021465;28;20268;-91
2023/12/25 08:22:12;;;;;;;44.97;19.97;;;7.90;85.50;;;;;;5019898;28;20264;-91
2023/12/25 08:24:38;;;;;;;44.33;16.53;;;7.90;85.30;;;;;;5020431;28;20185;-91
2023/12/25 08:27:04;;;;;;;33.63;15.30;;;7.90;85.10;;;;;;5022099;28;20208;-90
2023/12/25 08:29:29;;;;;;;48.40;15.20;;;7.90;85.10;;;;;;5024037;28;20197;-90
2023/12/25 08:31:55;;;;;;;44.40;16.47;;;7.90;84.90;;;;;;5023194;28;20641;-92
2023/12/25 08:34:23;;;;;;;37.63;16.20;;;7.90;85.30;;;;;;5024480;28;20205;-91
2023/12/25 08:36:49;;;;;;;33.10;14.20;;;7.90;85.40;;;;;;5021174;28;20658;-92
2023/12/25 08:39:15;;;;;;;30.60;14.90;;;7.90;85.50;;;;;;5020468;28;20672;-91
2023/12/25 08:41:41;;;;;;;37.43;21.93;;;7.90;85.30;;;;;;5020237;28;20173;-91
2023/12/25 08:44:06;;;;;;;53.60;21.87;;;7.90;85.20;;;;;;5020745;28;20533;-90
2023/12/25 08:46:32;;;;;;;45.90;22.57;;;7.90;85.60;;;;;;5023530;28;20232;-91
2023/12/25 08:48:58;;;;;;;36.80;14.33;;;7.90;85.70;;;;;;5021683;28;20173;-92
2023/12/25 08:51:23;;;;;;;43.13;14.77;;;7.90;85.10;;;;;;5021391;28;20553;-92
2023/12/25 08:53:49;;;;;;;33.37;14.77;;;7.90;84.90;;;;;;5025365;28;20185;-90
2023/12/25 08:56:25;;;;;;;41.23;21.07;;;8.00;84.10;;;;;;5021429;28;20189;-91
2023/12/25 08:58:51;;;;;;;48.00;22.17;;;8.00;84.10;;;;;;5018995;28;20177;-91
2023/12/25 09:01:17;;;;;;;37.37;17.17;;;7.90;84.30;;;;;;5019391;28;20174;-92
2023/12/25 09:03:42;;;;;;;34.73;13.50;;;7.90;84.70;;;;;;5018061;28;20177;-93
2023/12/25 09:06:08;;;;;;;32.97;14.07;;;7.90;84.80;;;;;;5016555;28;20181;-90
2023/12/25 09:08:33;;;;;;;50.87;22.63;;;7.90;84.90;;;;;;5021416;28;20339;-91
2023/12/25 09:10:59;;;;;;;45.63;22.60;;;8.00;84.70;;;;;;5019744;28;20206;-91
2023/12/25 09:13:25;;;;;;;43.70;21.37;;;8.00;84.90;;;;;;5017442;28;20177;-90
2023/12/25 09:15:53;;;;;;;37.73;15.10;;;8.00;85.20;;;;;;5018879;28;20209;-91
2023/12/25 09:18:18;;;;;;;38.63;15.57;;;8.00;85.20;;;;;;5017080;28;20180;-90
2023/12/25 09:20:44;;;;;;;39.27;21.60;;;8.10;85.30;;;;;;5015985;28;20232;-91
2023/12/25 09:23:09;;;;;;;54.03;23.20;;;8.10;85.40;;;;;;5015326;28;20327;-90
2023/12/25 09:25:57;;;;;;;40.80;21.10;;;8.10;85.10;;;;;;5019523;28;20257;-91
2023/12/25 09:28:23;;;;;;;23.63;12.77;;;8.30;85.10;;;;;;5015662;28;20192;-91
2023/12/25 09:30:56;;;;;;;35.83;14.60;;;8.30;85.10;;;;;;5015269;28;20197;-91
2023/12/25 09:33:27;;;;;;;54.70;21.53;;;8.30;85.30;;;;;;5013821;28;20174;-90
2023/12/25 09:36:11;;;;;;;46.70;22.40;;;8.30;85.40;;;;;;5015985;28;20193;-90
2023/12/25 09:38:51;;;;;;;44.53;19.87;;;8.30;85.40;;;;;;5014468;28;20161;-90
2023/12/25 09:41:22;;;;;;;40.93;15.20;;;8.20;85.30;;;;;;5016540;28;20181;-92
2023/12/25 09:44:06;;;;;;;39.80;15.23;;;8.30;85.20;;;;;;5016481;28;20667;-91
2023/12/25 09:46:34;;;;;;;36.73;22.00;;;8.20;85.30;;;;;;5017170;28;20154;-91
2023/12/25 09:49:00;;;;;;;37.83;21.87;;;8.20;85.10;;;;;;5016301;28;20219;-91
2023/12/25 09:51:32;;;;;;;33.73;15.60;;;8.20;84.90;;;;;;5014541;28;20253;-91
2023/12/25 09:53:58;;;;;;;28.47;14.07;;;8.20;84.60;;;;;;5016957;28;20203;-91
2023/12/25 09:56:26;;;;;;;42.47;18.13;;;8.20;84.50;;;;;;5016014;28;20169;-88
2023/12/25 09:58:53;;;;;;;46.67;22.93;;;8.20;84.40;;;;;;5016378;28;25093;-91
2023/12/25 10:01:20;;;;;;;43.70;21.27;;;8.10;84.60;;;;;;5015441;28;20169;-89
2023/12/25 10:03:46;;;;;;;34.07;14.47;;;8.10;84.70;;;;;;5015762;28;20664;-90
2023/12/25 10:06:12;;;;;;;40.70;16.03;;;8.10;84.70;;;;;;5017336;28;20181;-92
2023/12/25 10:08:38;;;;;;;44.03;15.53;;;8.10;84.40;;;;;;5019893;28;20228;-89
2023/12/25 10:11:06;;;;;;;45.40;15.53;;;8.10;84.70;;;;;;5025748;28;20224;-92
2023/12/25 10:13:31;;;;;;;39.73;16.27;;;8.00;84.50;;;;;;5020701;28;20220;-92
2023/12/25 10:15:57;;;;;;;36.93;16.23;;;8.10;84.00;;;;;;5017428;28;20209;-89
2023/12/25 10:18:23;;;;;;;38.03;17.33;;;8.20;83.40;;;;;;5015482;28;20269;-91
2023/12/25 10:20:59;;;;;;;31.40;16.77;;;8.20;83.20;;;;;;5014799;28;20197;-91
2023/12/25 10:23:29;;;;;;;44.87;17.83;;;8.20;82.10;;;;;;5013570;28;20184;-91
2023/12/25 10:25:56;;;;;;;36.87;17.70;;;8.20;82.40;;;;;;5013688;28;20650;-91
2023/12/25 10:28:26;;;;;;;32.93;16.40;;;8.20;81.90;;;;;;5014603;28;20243;-90
2023/12/25 10:31:02;;;;;;;32.00;15.93;;;8.20;81.90;;;;;;5018729;28;20200;-91
2023/12/25 10:33:28;;;;;;;32.53;16.03;;;8.30;81.70;;;;;;5016580;28;20665;-91
2023/12/25 10:36:24;;;;;;;34.30;16.10;;;8.30;81.70;;;;;;5015690;28;20213;-90
2023/12/25 10:38:49;;;;;;;42.33;17.97;;;8.30;82.30;;;;;;4997309;28;20194;-91
2023/12/25 10:41:19;;;;;;;32.07;16.60;;;8.40;81.80;;;;;;5018332;28;20257;-91
2023/12/25 10:43:56;;;;;;;38.87;17.63;;;8.40;81.20;;;;;;5016123;28;20272;-90
2023/12/25 10:46:26;;;;;;;29.37;16.63;;;8.40;81.20;;;;;;5016808;28;20185;-91
2023/12/25 10:48:54;;;;;;;30.27;16.73;;;8.40;81.40;;;;;;5017316;28;20212;-91
2023/12/25 10:51:25;;;;;;;34.10;23.70;;;8.30;81.60;;;;;;5017083;28;20667;-90
2023/12/25 10:53:50;;;;;;;43.67;25.77;;;8.50;81.80;;;;;;5015263;28;20170;-92
2023/12/25 10:56:20;;;;;;;42.73;26.30;;;8.50;82.00;;;;;;5016993;28;20212;-90
2023/12/25 10:58:51;;;;;;;36.60;24.37;;;8.60;82.20;;;;;;5016846;28;20231;-92
2023/12/25 11:01:24;;;;;;;39.00;24.80;;;8.60;82.40;;;;;;5015456;28;20181;-92
2023/12/25 11:03:54;;;;;;;41.43;24.87;;;8.60;82.50;;;;;;5015766;28;20171;-91
2023/12/25 11:06:21;;;;;;;41.37;25.00;;;8.70;82.50;;;;;;5019513;28;20219;-91
2023/12/25 11:08:47;;;;;;;31.10;24.50;;;8.70;82.20;;;;;;5017949;28;20229;-90
2023/12/25 11:11:13;;;;;;;40.43;25.43;;;8.70;82.00;;;;;;5015935;28;20595;-92
2023/12/25 11:13:40;;;;;;;43.30;26.40;;;8.70;82.10;;;;;;5020235;28;20178;-90
2023/12/25 11:16:07;;;;;;;36.60;27.57;;;8.80;81.40;;;;;;5021544;28;20209;-91
2023/12/25 11:18:39;;;;;;;45.93;26.73;;;8.80;80.20;;;;;;5021962;28;20549;-91
2023/12/25 11:21:09;;;;;;;43.77;27.03;;;8.80;80.60;;;;;;5023107;28;20196;-90
2023/12/25 11:23:37;;;;;;;38.63;28.23;;;8.80;79.70;;;;;;5023159;28;20184;-93
2023/12/25 11:26:07;;;;;;;37.20;28.73;;;8.90;80.10;;;;;;5021859;28;20239;-92
2023/12/25 11:28:37;;;;;;;36.20;27.37;;;8.90;79.30;;;;;;5019610;28;20185;-92
2023/12/25 11:31:04;;;;;;;36.57;27.60;;;9.00;80.30;;;;;;5022304;28;20201;-93
2023/12/25 11:33:41;;;;;;;38.57;26.07;;;9.10;79.50;;;;;;5018145;28;20228;-93
2023/12/25 11:36:17;;;;;;;39.13;29.17;;;9.10;79.50;;;;;;5016620;28;20207;-92
2023/12/25 11:38:56;;;;;;;32.87;18.07;;;9.10;78.90;;;;;;5020150;28;20181;-92
2023/12/25 11:41:23;;;;;;;34.43;19.33;;;9.20;79.70;;;;;;5020390;28;20165;-92
2023/12/25 11:43:49;;;;;;;39.17;27.33;;;9.10;79.50;;;;;;5024306;28;20557;-92
2023/12/25 11:46:18;;;;;;;39.77;25.63;;;9.10;80.70;;;;;;5025949;28;20220;-93
2023/12/25 11:48:44;;;;;;;41.27;25.70;;;9.20;81.10;;;;;;5024112;28;20185;-92
2023/12/25 11:51:26;;;;;;;28.77;17.77;;;9.30;81.00;;;;;;5023603;28;20177;-94
2023/12/25 11:53:57;;;;;;;40.97;17.70;;;9.20;81.50;;;;;;5018905;28;20177;-93
2023/12/25 11:56:23;;;;;;;47.23;27.97;;;9.30;80.60;;;;;;5019461;28;20189;-93
2023/12/25 11:58:49;;;;;;;41.97;28.37;;;9.30;80.30;;;;;;5020437;28;20195;-91
2023/12/25 12:01:16;;;;;;;50.73;28.50;;;9.30;80.60;;;;;;5023863;28;20291;-92
2023/12/25 12:03:49;;;;;;;36.20;21.07;;;9.40;80.40;;;;;;5019184;28;20642;-91
2023/12/25 12:06:19;;;;;;;36.97;20.43;;;9.40;80.00;;;;;;5018850;28;20173;-92
2023/12/25 12:08:45;;;;;;;36.97;19.03;;;9.40;80.30;;;;;;5021963;28;20192;-92
2023/12/25 12:11:13;;;;;;;29.67;20.10;;;9.40;79.50;;;;;;5026534;28;20199;-93
2023/12/25 12:13:39;;;;;;;39.80;21.97;;;9.40;78.60;;;;;;5023079;28;20246;-92
2023/12/25 12:16:05;;;;;;;32.13;19.90;;;9.40;78.70;;;;;;5022773;28;20228;-92
2023/12/25 12:18:31;;;;;;;33.57;20.63;;;9.40;78.40;;;;;;5021909;28;20316;-90
2023/12/25 12:20:57;;;;;;;37.10;20.37;;;9.40;77.80;;;;;;5025668;28;20663;-94
2023/12/25 12:23:22;;;;;;;36.57;20.47;;;9.50;78.60;;;;;;5024019;28;20201;-94
2023/12/25 12:25:48;;;;;;;33.07;20.63;;;9.40;78.60;;;;;;5028567;28;20181;-93
2023/12/25 12:28:17;;;;;;;36.70;19.70;;;9.10;78.20;;;;;;5018471;28;20185;-93
2023/12/25 12:30:43;;;;;;;37.83;19.57;;;9.20;79.20;;;;;;5019791;28;20640;-93
2023/12/25 12:33:10;;;;;;;40.03;20.00;;;9.30;79.80;;;;;;5024211;28;20551;-93
2023/12/25 12:35:36;;;;;;;33.40;18.87;;;9.10;80.00;;;;;;5023230;28;20296;-94
2023/12/25 12:38:03;;;;;;;33.30;17.87;;;9.20;80.10;;;;;;5028350;28;20174;-93
2023/12/25 12:40:28;;;;;;;34.00;20.33;;;9.20;80.50;;;;;;5023162;28;20667;-90
2023/12/25 12:42:54;;;;;;;35.70;26.40;;;9.20;80.30;;;;;;5022165;28;20188;-91
2023/12/25 12:45:20;;;;;;;43.17;28.03;;;9.20;80.60;;;;;;5024225;28;20223;-93
2023/12/25 12:47:47;;;;;;;47.33;28.70;;;9.10;80.50;;;;;;5026117;28;20203;-90
2023/12/25 12:50:13;;;;;;;39.10;23.00;;;9.10;81.20;;;;;;5026151;28;20209;-92
2023/12/25 12:52:38;;;;;;;;;;;9.20;80.50;;;;;;5031177;28;20082;-92